Time;durP1;ratioP1;P1;durP2;ratioP2;P2;SDS_P1;SDS_P2;PMS_P1;PMS_P2;Temp;Humidity;BMP_temperature;BMP_pressure;BME280_temperature;BME280_humidity;BME280_pressure;Samples;Min_cycle;Max_cycle;Signal;HPM_P1;HPM_P2
2022/01/17 00:00:17;;;;;;;16.90;3.22;;;6.10;99.90;;;;;;5008428;28;20907;-75
2022/01/17 00:02:43;;;;;;;21.35;2.83;;;6.10;99.90;;;;;;5010115;28;20116;-75
2022/01/17 00:05:10;;;;;;;21.02;3.42;;;6.10;99.90;;;;;;5005654;28;20517;-75
2022/01/17 00:07:36;;;;;;;17.27;2.40;;;6.10;99.90;;;;;;5008195;28;20053;-75
2022/01/17 00:10:03;;;;;;;17.02;2.65;;;6.10;99.90;;;;;;5006278;28;20037;-75
2022/01/17 00:12:31;;;;;;;15.73;2.60;;;6.10;99.90;;;;;;5004034;28;20387;-74
2022/01/17 00:14:57;;;;;;;18.25;2.83;;;6.10;99.90;;;;;;5003433;28;20026;-75
2022/01/17 00:17:36;;;;;;;17.33;2.85;;;6.10;99.90;;;;;;5007233;28;20036;-75
2022/01/17 00:20:17;;;;;;;21.77;2.53;;;6.10;99.90;;;;;;5009622;28;20041;-74
2022/01/17 00:22:44;;;;;;;17.83;3.13;;;6.10;99.90;;;;;;5006083;28;20026;-74
2022/01/17 00:25:10;;;;;;;20.70;3.47;;;6.20;99.90;;;;;;5005050;28;20026;-75
2022/01/17 00:27:35;;;;;;;19.83;2.75;;;6.10;99.90;;;;;;5006399;28;20026;-75
2022/01/17 00:30:03;;;;;;;21.85;2.60;;;6.10;99.90;;;;;;5004747;28;20045;-75
2022/01/17 00:32:30;;;;;;;14.10;2.60;;;6.20;99.90;;;;;;5006446;28;20075;-75
2022/01/17 00:34:56;;;;;;;15.43;2.10;;;6.20;99.90;;;;;;5007639;28;21606;-74
2022/01/17 00:37:22;;;;;;;21.58;2.72;;;6.20;99.90;;;;;;5005762;28;20160;-74
2022/01/17 00:39:48;;;;;;;10.63;2.08;;;6.20;99.90;;;;;;5008073;28;20117;-74
2022/01/17 00:42:14;;;;;;;17.40;2.58;;;6.20;99.90;;;;;;5005328;28;20030;-74
2022/01/17 00:44:39;;;;;;;21.05;2.40;;;6.20;99.90;;;;;;5008048;28;20029;-75
2022/01/17 00:47:05;;;;;;;22.13;2.80;;;6.20;99.90;;;;;;5008970;28;20025;-75
2022/01/17 00:49:31;;;;;;;22.05;2.83;;;6.20;99.90;;;;;;5005346;28;20026;-75
2022/01/17 00:51:57;;;;;;;24.73;4.53;;;6.20;99.90;;;;;;5004387;28;20120;-75
2022/01/17 00:54:22;;;;;;;24.33;2.50;;;6.20;99.90;;;;;;4996616;28;20044;-75
2022/01/17 00:56:48;;;;;;;21.15;3.13;;;6.30;99.90;;;;;;5004683;28;20361;-75
2022/01/17 00:59:13;;;;;;;17.80;2.47;;;6.30;99.90;;;;;;5005884;28;20037;-74
2022/01/17 01:01:39;;;;;;;12.15;2.63;;;6.30;99.90;;;;;;5007592;28;20069;-75
2022/01/17 01:04:05;;;;;;;14.68;2.15;;;6.30;99.90;;;;;;5008899;28;20117;-75
2022/01/17 01:06:31;;;;;;;18.17;2.92;;;6.30;99.90;;;;;;5003427;28;20048;-75
2022/01/17 01:08:57;;;;;;;15.52;2.67;;;6.40;99.90;;;;;;5004932;28;20030;-75
2022/01/17 01:11:23;;;;;;;19.10;3.33;;;6.30;99.90;;;;;;5004799;28;20029;-74
2022/01/17 01:13:48;;;;;;;18.17;3.25;;;6.30;99.90;;;;;;5007648;28;20026;-74
2022/01/17 01:19:07;;;;;;;19.45;3.00;;;6.40;99.90;;;;;;5007343;28;20792;-74
2022/01/17 01:27:41;;;;;;;17.45;2.90;;;6.50;99.90;;;;;;5006926;28;20032;-74
2022/01/17 01:29:58;;;;;;;25.58;2.92;;;6.50;99.90;;;;;;5004779;28;20402;-74
2022/01/17 01:32:31;;;;;;;19.63;2.65;;;6.50;99.90;;;;;;5001316;28;20033;-74
2022/01/17 01:34:59;;;;;;;14.55;2.50;;;6.50;99.90;;;;;;5005632;28;20104;-74
2022/01/17 01:37:25;;;;;;;17.65;2.50;;;6.50;99.90;;;;;;5009145;28;20029;-74
2022/01/17 01:39:52;;;;;;;14.55;3.20;;;6.60;99.90;;;;;;5005130;28;20041;-74
2022/01/17 01:42:19;;;;;;;26.52;3.88;;;6.60;99.90;;;;;;5004809;28;20506;-74
2022/01/17 01:44:48;;;;;;;19.17;2.95;;;6.50;99.90;;;;;;5003436;28;20031;-74
2022/01/17 01:47:14;;;;;;;21.30;2.15;;;6.60;99.90;;;;;;5004678;28;20073;-75
2022/01/17 01:49:40;;;;;;;13.63;2.20;;;6.60;99.90;;;;;;5001366;28;20027;-75
2022/01/17 01:52:06;;;;;;;19.30;3.15;;;6.60;99.90;;;;;;5005673;28;20049;-74
2022/01/17 01:54:32;;;;;;;25.13;3.35;;;6.60;99.90;;;;;;5009236;28;20073;-74
2022/01/17 01:56:58;;;;;;;23.40;4.38;;;6.60;99.90;;;;;;5007089;28;20034;-73
2022/01/17 01:59:24;;;;;;;17.63;3.08;;;6.60;99.90;;;;;;5008059;28;20034;-75
2022/01/17 02:01:51;;;;;;;17.50;2.47;;;6.60;99.90;;;;;;5009354;28;20045;-74
2022/01/17 02:04:17;;;;;;;20.85;3.22;;;6.60;99.90;;;;;;5008884;28;20044;-74
2022/01/17 02:06:43;;;;;;;20.63;2.92;;;6.60;99.90;;;;;;5009771;28;20026;-74
2022/01/17 02:09:09;;;;;;;18.42;3.30;;;6.60;99.90;;;;;;5007646;28;20030;-74
2022/01/17 02:11:35;;;;;;;28.13;3.70;;;6.60;99.90;;;;;;5005244;28;20076;-74
2022/01/17 02:14:01;;;;;;;20.65;3.40;;;6.60;99.90;;;;;;5010436;28;20104;-74
2022/01/17 02:16:27;;;;;;;23.83;3.08;;;6.60;99.90;;;;;;5007742;28;20033;-74
2022/01/17 02:18:53;;;;;;;24.90;4.15;;;6.60;99.90;;;;;;5006033;28;20038;-75
2022/01/17 02:21:31;;;;;;;21.23;3.40;;;6.60;99.90;;;;;;5004622;28;20491;-74
2022/01/17 02:23:58;;;;;;;18.70;2.83;;;6.60;99.90;;;;;;5008387;28;20033;-74
2022/01/17 02:26:25;;;;;;;23.92;3.90;;;6.60;99.90;;;;;;5006477;28;20033;-74
2022/01/17 02:28:53;;;;;;;23.42;3.00;;;6.70;99.90;;;;;;5010901;28;20104;-74
2022/01/17 02:31:21;;;;;;;19.73;2.97;;;6.70;99.90;;;;;;5006632;28;20021;-74
2022/01/17 02:33:49;;;;;;;26.80;3.63;;;6.60;99.90;;;;;;5008327;28;20420;-74
2022/01/17 02:36:15;;;;;;;20.90;3.20;;;6.70;99.90;;;;;;5003627;28;20022;-74
2022/01/17 02:38:41;;;;;;;19.02;2.28;;;6.70;99.90;;;;;;5008723;28;20022;-74
2022/01/17 02:41:07;;;;;;;20.05;4.30;;;6.70;99.90;;;;;;5003678;28;20069;-74
2022/01/17 02:43:34;;;;;;;20.60;3.40;;;6.60;99.90;;;;;;5004106;28;20077;-75
2022/01/17 02:48:28;;;;;;;19.90;2.92;;;6.70;99.90;;;;;;5007877;28;20033;-73
2022/01/17 02:50:55;;;;;;;15.63;3.28;;;6.70;99.90;;;;;;5007552;28;20431;-75
2022/01/17 02:53:20;;;;;;;15.32;2.72;;;6.70;99.90;;;;;;5003461;28;20026;-74
2022/01/17 02:55:52;;;;;;;21.52;3.13;;;6.70;99.90;;;;;;5007406;28;20030;-74
2022/01/17 02:58:20;;;;;;;20.60;3.17;;;6.70;99.90;;;;;;5006059;28;20097;-74
2022/01/17 03:00:47;;;;;;;15.23;2.78;;;6.70;99.90;;;;;;5007400;28;20033;-74
2022/01/17 03:03:14;;;;;;;24.73;3.67;;;6.70;99.90;;;;;;5008951;28;20471;-74
2022/01/17 03:05:40;;;;;;;17.15;2.55;;;6.80;99.90;;;;;;5008665;28;20034;-74
2022/01/17 03:08:06;;;;;;;31.95;5.05;;;6.80;99.90;;;;;;5008522;28;20502;-74
2022/01/17 03:10:43;;;;;;;16.75;2.20;;;6.70;99.90;;;;;;5009835;28;20026;-74
2022/01/17 03:13:32;;;;;;;24.58;3.95;;;6.80;99.90;;;;;;5006593;28;20022;-74
2022/01/17 03:16:00;;;;;;;26.17;3.00;;;6.80;99.90;;;;;;5009120;28;20026;-75
2022/01/17 03:18:32;;;;;;;22.52;3.03;;;6.80;99.90;;;;;;5008309;28;20026;-74
2022/01/17 03:20:59;;;;;;;22.98;2.45;;;6.80;99.90;;;;;;5008961;28;20030;-74
2022/01/17 03:23:25;;;;;;;26.90;3.10;;;6.80;99.90;;;;;;5004646;28;20023;-74
2022/01/17 03:25:52;;;;;;;17.85;2.70;;;6.80;99.90;;;;;;5001516;28;20026;-74
2022/01/17 03:28:18;;;;;;;22.73;3.97;;;6.80;99.90;;;;;;5007021;28;20518;-74
2022/01/17 03:30:44;;;;;;;22.52;3.72;;;6.80;99.90;;;;;;5009798;28;20026;-73
2022/01/17 03:33:14;;;;;;;17.80;2.50;;;6.90;99.90;;;;;;5007568;28;20054;-74
2022/01/17 03:35:40;;;;;;;23.73;3.33;;;6.90;99.90;;;;;;5009157;28;20026;-74
2022/01/17 03:38:08;;;;;;;21.05;3.78;;;6.90;99.90;;;;;;5002370;28;20057;-74
2022/01/17 03:40:34;;;;;;;18.33;2.80;;;6.90;99.90;;;;;;5003394;28;20022;-75
2022/01/17 03:43:00;;;;;;;21.45;2.60;;;6.90;99.90;;;;;;5009775;28;20382;-74
2022/01/17 03:45:25;;;;;;;13.15;2.75;;;6.90;99.90;;;;;;5011722;28;20026;-74
2022/01/17 03:47:52;;;;;;;18.00;3.05;;;6.90;99.90;;;;;;5013883;28;20372;-74
2022/01/17 03:50:20;;;;;;;17.83;3.20;;;6.80;99.90;;;;;;5006200;28;20033;-74
2022/01/17 03:52:47;;;;;;;18.27;2.80;;;6.90;99.90;;;;;;5005715;28;20018;-74
2022/01/17 03:55:16;;;;;;;20.55;3.08;;;6.90;99.90;;;;;;5007349;28;20029;-74
2022/01/17 03:57:43;;;;;;;19.08;2.70;;;6.80;99.90;;;;;;5007078;28;20033;-74
2022/01/17 04:00:13;;;;;;;23.45;3.78;;;6.90;99.90;;;;;;5007411;28;20033;-74
2022/01/17 04:02:39;;;;;;;23.15;3.20;;;6.90;99.90;;;;;;5005073;28;20026;-74
2022/01/17 04:05:06;;;;;;;24.23;3.40;;;6.90;99.90;;;;;;5003240;28;20033;-74
2022/01/17 04:07:31;;;;;;;16.65;2.70;;;6.80;99.90;;;;;;5005981;28;20036;-74
2022/01/17 04:09:57;;;;;;;24.98;4.00;;;6.90;99.90;;;;;;5006077;28;20497;-74
2022/01/17 04:12:23;;;;;;;16.33;2.65;;;6.90;99.90;;;;;;5007910;28;20018;-74
2022/01/17 04:14:54;;;;;;;24.27;2.85;;;6.90;99.90;;;;;;5005500;28;20033;-74
2022/01/17 04:17:20;;;;;;;15.35;2.75;;;6.80;99.90;;;;;;5005656;28;20396;-74
2022/01/17 04:19:52;;;;;;;20.27;2.85;;;6.90;99.90;;;;;;5006383;28;20072;-74
2022/01/17 04:22:17;;;;;;;23.17;2.85;;;6.90;99.90;;;;;;5006208;28;20033;-74
2022/01/17 04:24:43;;;;;;;21.23;3.30;;;6.90;99.90;;;;;;5003539;28;20021;-74
2022/01/17 04:27:09;;;;;;;18.63;3.38;;;6.90;99.90;;;;;;5009234;28;20061;-74
2022/01/17 04:29:35;;;;;;;23.38;3.30;;;6.90;99.90;;;;;;5005005;28;20053;-74
2022/01/17 04:32:02;;;;;;;15.25;2.67;;;6.90;99.90;;;;;;5009833;28;20479;-74
2022/01/17 04:34:27;;;;;;;16.63;2.70;;;6.90;99.90;;;;;;5006519;28;20082;-74
2022/01/17 04:36:53;;;;;;;18.13;2.75;;;7.00;99.90;;;;;;5007778;28;20057;-74
2022/01/17 04:39:20;;;;;;;26.00;3.72;;;7.00;99.90;;;;;;5006844;28;20030;-74
2022/01/17 04:41:45;;;;;;;26.17;3.28;;;7.00;99.90;;;;;;5007540;28;20026;-74
2022/01/17 04:46:55;;;;;;;19.63;3.33;;;7.00;99.90;;;;;;5003194;28;20080;-74
2022/01/17 04:49:21;;;;;;;25.10;4.22;;;7.00;99.90;;;;;;5005378;28;20029;-74
2022/01/17 04:51:52;;;;;;;18.50;3.10;;;7.00;99.90;;;;;;5010125;28;20030;-74
2022/01/17 04:54:40;;;;;;;17.73;3.67;;;7.00;99.90;;;;;;5005249;28;20113;-74
2022/01/17 04:57:07;;;;;;;18.33;2.83;;;7.00;99.90;;;;;;5002393;28;20041;-74
2022/01/17 04:59:33;;;;;;;19.90;3.20;;;7.00;99.90;;;;;;5001394;28;20036;-74
2022/01/17 05:01:59;;;;;;;19.50;3.33;;;7.10;99.90;;;;;;5008157;28;20030;-74
2022/01/17 05:04:24;;;;;;;23.20;4.70;;;7.10;99.90;;;;;;4999250;28;20081;-74
2022/01/17 05:06:50;;;;;;;22.48;3.45;;;7.00;99.90;;;;;;5006577;28;20083;-74
2022/01/17 05:09:15;;;;;;;30.60;3.35;;;7.00;99.90;;;;;;5005008;28;20029;-74
2022/01/17 05:11:42;;;;;;;17.30;3.05;;;7.00;99.90;;;;;;5005111;28;20026;-73
2022/01/17 05:14:09;;;;;;;22.55;3.10;;;7.10;99.90;;;;;;5004167;28;20022;-73
2022/01/17 05:16:40;;;;;;;15.27;3.42;;;7.10;99.90;;;;;;4991265;28;21905;-75
2022/01/17 05:21:51;;;;;;;16.52;3.03;;;7.10;99.90;;;;;;5004785;28;20065;-74
2022/01/17 05:24:16;;;;;;;15.90;2.90;;;7.10;99.90;;;;;;5004648;28;20022;-73
2022/01/17 05:26:42;;;;;;;21.85;2.85;;;7.10;99.90;;;;;;5005440;28;20041;-74
2022/01/17 05:29:08;;;;;;;27.70;4.05;;;7.20;99.90;;;;;;5007110;28;20068;-74
2022/01/17 05:31:34;;;;;;;18.75;3.67;;;7.20;99.90;;;;;;5002196;28;20029;-74
2022/01/17 05:33:59;;;;;;;24.80;3.30;;;7.20;99.90;;;;;;4991299;28;20121;-74
2022/01/17 05:36:25;;;;;;;20.40;3.72;;;7.20;99.90;;;;;;5009510;28;20067;-74
2022/01/17 05:38:52;;;;;;;20.35;3.92;;;7.20;99.90;;;;;;5009672;28;20046;-74
2022/01/17 05:41:19;;;;;;;23.55;4.03;;;7.20;99.90;;;;;;5009694;28;20044;-74
2022/01/17 05:43:45;;;;;;;21.35;3.58;;;7.20;99.90;;;;;;5010641;28;20427;-74
2022/01/17 05:46:10;;;;;;;23.88;3.53;;;7.20;99.90;;;;;;5024316;28;20033;-74
2022/01/17 05:48:37;;;;;;;26.20;3.83;;;7.20;99.90;;;;;;5008746;28;20033;-74
2022/01/17 05:51:02;;;;;;;26.95;4.53;;;7.30;99.90;;;;;;5009387;28;20034;-74
2022/01/17 05:53:28;;;;;;;27.60;5.68;;;7.30;99.90;;;;;;5010618;28;20407;-74
2022/01/17 05:55:54;;;;;;;28.08;4.40;;;7.30;99.90;;;;;;5011044;28;20065;-74
2022/01/17 05:58:20;;;;;;;26.35;4.22;;;7.30;99.90;;;;;;5010312;28;20030;-73
2022/01/17 06:00:45;;;;;;;29.83;4.30;;;7.30;99.90;;;;;;5010807;28;20037;-73
2022/01/17 06:03:11;;;;;;;24.13;3.55;;;7.40;99.90;;;;;;5009260;28;20039;-73
2022/01/17 06:05:37;;;;;;;30.10;4.60;;;7.40;99.90;;;;;;5008870;28;20069;-74
2022/01/17 06:08:03;;;;;;;22.30;4.10;;;7.40;99.90;;;;;;5018198;28;20037;-74
2022/01/17 06:10:29;;;;;;;27.83;4.15;;;7.40;99.90;;;;;;5012526;28;20030;-74
2022/01/17 06:12:55;;;;;;;21.92;3.90;;;7.30;99.90;;;;;;5008298;28;20022;-74
2022/01/17 06:15:21;;;;;;;32.40;4.15;;;7.40;99.90;;;;;;5009953;28;20026;-73
2022/01/17 06:17:47;;;;;;;25.45;3.58;;;7.30;99.90;;;;;;5006139;28;20444;-74
2022/01/17 06:20:14;;;;;;;21.80;5.00;;;7.40;99.90;;;;;;5004644;28;20049;-74
2022/01/17 06:22:39;;;;;;;35.22;4.45;;;7.40;99.90;;;;;;5009584;28;20022;-74
2022/01/17 06:25:06;;;;;;;20.13;3.90;;;7.40;99.90;;;;;;5011032;28;20034;-74
2022/01/17 06:27:32;;;;;;;30.25;5.00;;;7.40;99.90;;;;;;5009321;28;20479;-76
2022/01/17 06:29:59;;;;;;;28.15;3.97;;;7.40;99.90;;;;;;5009691;28;20030;-74
2022/01/17 06:32:26;;;;;;;28.05;3.80;;;7.50;99.90;;;;;;5011845;28;20392;-74
2022/01/17 06:34:55;;;;;;;33.72;4.65;;;7.50;99.90;;;;;;5008007;28;20033;-74
2022/01/17 06:37:21;;;;;;;27.58;4.55;;;7.50;99.90;;;;;;5011662;28;20558;-74
2022/01/17 06:39:46;;;;;;;24.80;3.92;;;7.50;99.90;;;;;;5010832;28;20025;-74
2022/01/17 06:42:12;;;;;;;30.75;4.32;;;7.50;99.90;;;;;;5009904;28;20105;-75
2022/01/17 06:44:38;;;;;;;29.30;3.97;;;7.50;99.90;;;;;;5011057;28;20072;-76
2022/01/17 06:47:04;;;;;;;25.95;5.28;;;7.40;99.90;;;;;;5012536;28;20015;-74
2022/01/17 06:49:29;;;;;;;24.25;4.60;;;7.50;99.90;;;;;;5015932;28;20376;-75
2022/01/17 06:51:55;;;;;;;20.02;3.58;;;7.40;99.90;;;;;;5012050;28;20029;-75
2022/01/17 06:54:21;;;;;;;27.10;4.50;;;7.40;99.90;;;;;;5010786;28;20034;-75
2022/01/17 06:56:46;;;;;;;30.10;4.78;;;7.40;99.90;;;;;;5011268;28;20057;-76
2022/01/17 06:59:13;;;;;;;28.73;3.90;;;7.40;99.90;;;;;;5009935;28;20116;-75
2022/01/17 07:01:40;;;;;;;27.75;3.70;;;7.40;99.90;;;;;;5007306;28;20033;-75
2022/01/17 07:04:07;;;;;;;29.85;5.20;;;7.50;99.90;;;;;;5010339;28;20080;-75
2022/01/17 07:06:33;;;;;;;26.67;4.00;;;7.50;99.90;;;;;;5011100;28;20049;-75
2022/01/17 07:08:59;;;;;;;23.25;4.50;;;7.50;99.90;;;;;;5006167;28;20044;-75
2022/01/17 07:11:26;;;;;;;36.13;4.60;;;7.50;99.90;;;;;;5006662;28;20471;-75
2022/01/17 07:13:52;;;;;;;28.88;4.80;;;7.50;99.90;;;;;;5009169;28;20026;-75
2022/01/17 07:16:19;;;;;;;36.72;5.75;;;7.50;99.90;;;;;;5010723;28;20057;-75
2022/01/17 07:18:45;;;;;;;32.65;4.35;;;7.60;99.90;;;;;;5008838;28;20034;-76
2022/01/17 07:21:10;;;;;;;33.90;4.70;;;7.60;99.90;;;;;;5007465;28;21044;-78
2022/01/17 07:23:39;;;;;;;23.45;4.68;;;7.60;99.90;;;;;;5016219;28;20539;-77
2022/01/17 07:26:05;;;;;;;36.80;5.53;;;7.60;99.90;;;;;;5001450;28;20037;-77
2022/01/17 07:28:30;;;;;;;33.95;5.40;;;7.60;99.90;;;;;;5020156;28;20018;-79
2022/01/17 07:30:56;;;;;;;24.85;3.90;;;7.70;99.90;;;;;;5022166;28;20030;-79
2022/01/17 07:33:24;;;;;;;26.17;4.75;;;7.60;99.90;;;;;;5015644;28;20083;-77
2022/01/17 07:35:50;;;;;;;27.80;3.90;;;7.60;99.90;;;;;;5001759;28;20128;-78
2022/01/17 07:38:16;;;;;;;37.63;4.63;;;7.60;99.90;;;;;;4996548;28;20139;-76
2022/01/17 07:40:43;;;;;;;25.50;4.65;;;7.60;99.90;;;;;;5013488;28;20627;-78
2022/01/17 07:43:10;;;;;;;23.83;3.88;;;7.60;99.90;;;;;;5008922;28;20033;-77
2022/01/17 07:45:44;;;;;;;34.58;4.80;;;7.60;99.90;;;;;;5005878;28;20096;-77
2022/01/17 07:48:56;;;;;;;23.27;4.80;;;7.60;99.90;;;;;;5007508;28;20030;-75
2022/01/17 07:51:05;;;;;;;31.77;4.28;;;7.60;99.90;;;;;;5007846;28;20403;-76
2022/01/17 07:53:30;;;;;;;22.13;4.13;;;7.60;99.90;;;;;;5009479;28;20109;-75
2022/01/17 07:55:56;;;;;;;31.00;3.90;;;7.70;99.90;;;;;;5009830;28;20041;-76
2022/01/17 07:58:22;;;;;;;33.03;4.85;;;7.60;99.90;;;;;;5004294;28;20131;-76
2022/01/17 08:00:48;;;;;;;28.92;5.75;;;7.70;99.90;;;;;;5010819;28;20037;-76
2022/01/17 08:03:13;;;;;;;22.73;3.83;;;7.70;99.90;;;;;;5008999;28;20030;-74
2022/01/17 08:05:39;;;;;;;30.38;5.05;;;7.70;99.90;;;;;;5005235;28;20021;-77
2022/01/17 08:08:05;;;;;;;16.52;3.70;;;7.70;99.90;;;;;;5008124;28;20032;-76
2022/01/17 08:10:31;;;;;;;29.00;5.50;;;7.80;99.90;;;;;;5013679;28;20412;-76
2022/01/17 08:12:56;;;;;;;32.90;4.68;;;7.70;99.90;;;;;;5010412;28;20033;-76
2022/01/17 08:15:22;;;;;;;27.08;3.88;;;7.70;99.90;;;;;;5010491;28;20037;-75
2022/01/17 08:17:48;;;;;;;28.27;5.03;;;7.70;99.90;;;;;;5007424;28;20053;-74
2022/01/17 08:20:15;;;;;;;30.63;4.22;;;7.60;99.90;;;;;;5007058;28;20036;-74
2022/01/17 08:22:43;;;;;;;33.60;4.90;;;7.70;99.90;;;;;;5005994;28;20061;-75
2022/01/17 08:25:09;;;;;;;35.05;5.47;;;7.70;99.90;;;;;;5009962;28;20030;-75
2022/01/17 08:27:35;;;;;;;32.28;5.07;;;7.60;99.90;;;;;;5006820;28;20029;-74
2022/01/17 08:30:01;;;;;;;30.05;5.85;;;7.70;99.90;;;;;;5013443;28;20023;-75
2022/01/17 08:32:29;;;;;;;47.63;6.53;;;7.70;99.90;;;;;;5009533;28;20377;-75
2022/01/17 08:34:57;;;;;;;24.30;4.45;;;7.70;99.90;;;;;;5008696;28;20044;-74
2022/01/17 08:37:23;;;;;;;37.95;4.95;;;7.70;99.90;;;;;;5003065;28;20123;-76
2022/01/17 08:39:49;;;;;;;38.50;5.20;;;7.70;99.90;;;;;;5004134;28;20104;-74
2022/01/17 08:42:15;;;;;;;35.45;5.60;;;7.70;99.90;;;;;;5002635;28;20141;-73
2022/01/17 08:44:48;;;;;;;33.42;5.55;;;7.80;99.90;;;;;;5007565;28;20073;-75
2022/01/17 08:47:14;;;;;;;28.20;4.43;;;7.80;99.90;;;;;;4987321;28;20030;-74
2022/01/17 08:49:40;;;;;;;36.83;5.85;;;7.80;99.90;;;;;;5007931;28;20156;-75
2022/01/17 08:52:06;;;;;;;27.80;4.60;;;7.80;99.90;;;;;;5008341;28;20450;-75
2022/01/17 08:54:32;;;;;;;29.15;4.40;;;7.80;99.90;;;;;;5000389;28;20030;-73
2022/01/17 08:56:57;;;;;;;20.40;3.40;;;7.80;99.90;;;;;;5003421;28;20856;-74
2022/01/17 08:59:23;;;;;;;21.55;3.75;;;7.80;99.90;;;;;;5003708;28;20042;-74
2022/01/17 09:01:49;;;;;;;25.85;5.03;;;7.70;99.90;;;;;;5005536;28;20399;-75
2022/01/17 09:04:15;;;;;;;28.55;4.40;;;7.70;99.90;;;;;;5003627;28;20311;-74
2022/01/17 09:06:40;;;;;;;34.03;6.80;;;7.70;99.90;;;;;;5001529;28;20033;-75
2022/01/17 09:09:06;;;;;;;26.30;4.88;;;7.70;99.90;;;;;;4998446;28;20034;-75
2022/01/17 09:11:32;;;;;;;35.53;5.20;;;7.70;99.90;;;;;;4995725;28;20037;-76
2022/01/17 09:13:58;;;;;;;33.65;6.55;;;7.80;99.90;;;;;;4997306;28;20579;-76
2022/01/17 09:16:24;;;;;;;32.70;5.93;;;7.80;99.90;;;;;;4997435;28;20352;-76
2022/01/17 09:18:49;;;;;;;37.03;6.00;;;7.80;99.90;;;;;;4999819;28;20034;-77
2022/01/17 09:21:15;;;;;;;36.90;6.03;;;7.80;99.90;;;;;;4979655;28;20124;-76
2022/01/17 09:23:41;;;;;;;36.70;5.97;;;7.80;99.90;;;;;;5013084;28;20038;-76
2022/01/17 09:26:08;;;;;;;34.00;5.88;;;7.80;99.90;;;;;;5003552;28;20037;-76
2022/01/17 09:28:34;;;;;;;32.03;5.95;;;7.80;99.90;;;;;;5009268;28;20018;-76
2022/01/17 09:31:00;;;;;;;36.30;5.53;;;7.80;99.90;;;;;;5006506;28;20390;-77
2022/01/17 09:33:27;;;;;;;34.60;5.25;;;7.80;99.90;;;;;;5001798;28;20033;-75
2022/01/17 09:35:53;;;;;;;37.45;6.18;;;7.80;99.90;;;;;;5001964;28;20037;-77
2022/01/17 09:38:19;;;;;;;35.95;6.38;;;7.80;99.90;;;;;;4998194;28;20030;-77
2022/01/17 09:40:45;;;;;;;31.70;5.30;;;7.90;99.90;;;;;;5000059;28;20022;-77
2022/01/17 09:43:11;;;;;;;32.63;5.72;;;7.80;99.90;;;;;;5000460;28;20182;-77
2022/01/17 09:45:39;;;;;;;25.65;5.30;;;7.80;99.90;;;;;;4981846;28;20037;-76
2022/01/17 09:48:06;;;;;;;27.45;4.10;;;7.80;99.90;;;;;;4999720;28;20049;-76
2022/01/17 09:50:46;;;;;;;23.23;4.30;;;7.80;99.90;;;;;;4999956;28;21997;-76
2022/01/17 09:53:18;;;;;;;25.27;5.15;;;7.90;99.90;;;;;;5001858;28;20029;-76
2022/01/17 09:55:44;;;;;;;27.98;3.72;;;7.90;99.90;;;;;;4999507;28;20068;-76
2022/01/17 09:58:10;;;;;;;21.67;4.57;;;7.90;99.90;;;;;;4988768;28;20530;-76
2022/01/17 10:00:42;;;;;;;27.65;3.70;;;7.80;99.90;;;;;;4998117;28;20036;-76
2022/01/17 10:03:13;;;;;;;20.98;3.55;;;7.80;99.90;;;;;;4996510;28;20464;-77
2022/01/17 10:05:39;;;;;;;18.02;3.13;;;7.80;99.90;;;;;;4992846;28;20455;-76
2022/01/17 10:08:08;;;;;;;9.30;2.47;;;7.80;99.90;;;;;;4991723;28;20046;-76
2022/01/17 10:10:46;;;;;;;10.75;2.65;;;7.80;99.90;;;;;;5000090;28;20036;-76
2022/01/17 10:13:23;;;;;;;14.45;3.13;;;7.80;99.90;;;;;;4974950;28;20037;-76
2022/01/17 10:16:11;;;;;;;13.20;2.20;;;7.90;99.90;;;;;;4994091;28;20553;-77
2022/01/17 10:18:50;;;;;;;13.65;2.42;;;7.90;99.90;;;;;;4994001;28;20064;-75
2022/01/17 10:21:43;;;;;;;14.35;2.05;;;8.00;99.90;;;;;;5000999;28;20022;-75
2022/01/17 10:35:30;;;;;;;14.60;2.38;;;7.90;99.90;;;;;;5008747;28;20044;-76
2022/01/17 10:38:01;;;;;;;10.10;2.60;;;7.90;99.90;;;;;;5008191;28;20034;-76
2022/01/17 10:40:56;;;;;;;17.67;2.35;;;7.90;99.90;;;;;;5009938;28;20026;-76
2022/01/17 10:43:25;;;;;;;12.93;2.58;;;7.90;99.90;;;;;;4991143;28;20041;-76
2022/01/17 10:45:53;;;;;;;10.43;1.85;;;7.90;99.90;;;;;;5009438;28;20124;-76
2022/01/17 10:48:19;;;;;;;14.98;1.83;;;8.00;99.90;;;;;;5010395;28;20499;-76
2022/01/17 10:50:50;;;;;;;10.57;2.28;;;8.00;99.90;;;;;;5011954;28;20038;-77
2022/01/17 10:53:17;;;;;;;13.18;3.33;;;8.00;99.90;;;;;;5033347;28;20022;-78
2022/01/17 10:55:48;;;;;;;14.40;3.47;;;7.90;99.90;;;;;;5016789;28;20096;-77
2022/01/17 10:58:25;;;;;;;16.25;3.13;;;8.00;99.90;;;;;;5012350;28;20033;-77
2022/01/17 11:00:59;;;;;;;10.85;2.20;;;7.90;99.90;;;;;;5011860;28;20044;-77
2022/01/17 11:03:28;;;;;;;15.77;2.53;;;7.80;99.90;;;;;;5012781;28;20032;-77
2022/01/17 11:05:57;;;;;;;11.27;2.13;;;7.90;99.90;;;;;;5011672;28;20018;-77
2022/01/17 11:08:28;;;;;;;17.20;2.47;;;8.00;99.90;;;;;;5012809;28;20097;-77
2022/01/17 11:10:56;;;;;;;16.98;3.03;;;8.00;99.90;;;;;;5010267;28;20030;-76
2022/01/17 11:13:31;;;;;;;10.82;2.20;;;7.80;99.90;;;;;;5009135;28;20506;-76
2022/01/17 11:16:01;;;;;;;9.90;2.15;;;7.60;99.90;;;;;;5011395;28;20041;-76
2022/01/17 11:18:29;;;;;;;12.70;2.60;;;7.40;99.90;;;;;;5015048;28;20179;-77
2022/01/17 11:21:00;;;;;;;17.90;2.80;;;7.30;99.90;;;;;;5017825;28;20092;-77
2022/01/17 11:23:27;;;;;;;11.27;2.22;;;7.10;99.90;;;;;;5021366;28;20026;-77
2022/01/17 11:25:55;;;;;;;15.32;2.80;;;7.00;99.90;;;;;;5010477;28;20113;-76
2022/01/17 11:28:24;;;;;;;14.85;2.08;;;6.90;99.90;;;;;;5012089;28;20084;-77
2022/01/17 11:30:53;;;;;;;14.25;2.20;;;6.90;99.90;;;;;;5015479;28;20073;-78
2022/01/17 11:33:19;;;;;;;12.43;2.20;;;6.90;99.90;;;;;;5013560;28;20092;-77
2022/01/17 11:35:51;;;;;;;16.42;2.60;;;6.90;99.90;;;;;;5009576;28;20100;-77
2022/01/17 11:38:28;;;;;;;11.85;2.00;;;6.90;99.90;;;;;;5010425;28;20030;-75
2022/01/17 11:40:55;;;;;;;10.57;2.63;;;7.00;99.90;;;;;;5011756;28;20061;-75
2022/01/17 11:43:33;;;;;;;17.52;2.35;;;7.10;99.90;;;;;;5012379;28;20038;-78
2022/01/17 11:46:00;;;;;;;16.88;3.55;;;7.10;99.90;;;;;;5012285;28;20060;-78
2022/01/17 11:48:31;;;;;;;17.67;3.08;;;7.10;99.90;;;;;;5015162;28;20093;-81
2022/01/17 11:51:10;;;;;;;23.92;3.40;;;7.10;99.90;;;;;;5012522;28;20097;-77
2022/01/17 11:53:38;;;;;;;20.85;2.85;;;7.10;99.90;;;;;;5009261;28;20095;-77
2022/01/17 11:56:04;;;;;;;18.98;2.92;;;7.10;99.90;;;;;;5009835;28;20391;-76
2022/01/17 11:58:59;;;;;;;20.08;3.25;;;7.20;99.90;;;;;;5010824;28;20033;-76
2022/01/17 12:01:25;;;;;;;17.77;3.50;;;7.20;99.90;;;;;;4998791;28;20041;-76
2022/01/17 12:03:54;;;;;;;20.73;4.05;;;7.20;99.90;;;;;;5004477;28;20439;-76
2022/01/17 12:06:32;;;;;;;26.60;4.03;;;7.20;99.90;;;;;;5012734;28;20030;-77
2022/01/17 12:09:16;;;;;;;21.90;4.30;;;7.30;99.90;;;;;;5012023;28;20430;-76
2022/01/17 12:11:42;;;;;;;32.25;5.03;;;7.30;99.90;;;;;;5007448;28;20026;-74
2022/01/17 12:14:32;;;;;;;21.60;3.83;;;7.30;99.90;;;;;;5007746;28;20144;-74
2022/01/17 12:17:20;;;;;;;22.00;4.47;;;7.30;99.90;;;;;;5009975;28;20680;-74
2022/01/17 12:20:09;;;;;;;21.33;4.18;;;7.30;99.90;;;;;;5008378;28;20112;-73
2022/01/17 12:22:46;;;;;;;18.77;3.38;;;7.30;99.90;;;;;;5006529;28;20026;-73
2022/01/17 12:25:21;;;;;;;19.13;3.92;;;7.30;99.90;;;;;;5010556;28;20034;-73
2022/01/17 12:27:51;;;;;;;24.92;3.95;;;7.30;99.90;;;;;;5006925;28;20029;-72
2022/01/17 12:30:18;;;;;;;17.40;3.70;;;7.30;99.90;;;;;;5008285;28;20037;-73
2022/01/17 12:32:49;;;;;;;26.52;4.90;;;7.40;99.90;;;;;;5001746;28;20026;-74
2022/01/17 12:35:18;;;;;;;21.90;4.05;;;7.30;99.90;;;;;;5006174;28;20026;-73
2022/01/17 12:37:57;;;;;;;20.60;3.92;;;7.30;99.90;;;;;;5009370;28;20027;-74
2022/01/17 12:40:35;;;;;;;25.38;4.10;;;7.40;99.90;;;;;;5007092;28;20046;-74
2022/01/17 12:43:16;;;;;;;27.80;4.90;;;7.40;99.90;;;;;;5010561;28;20022;-73
2022/01/17 12:45:46;;;;;;;26.17;5.07;;;7.40;99.90;;;;;;5009975;28;20030;-74
2022/01/17 12:48:14;;;;;;;26.90;5.03;;;7.50;99.90;;;;;;5012006;28;20105;-74
2022/01/17 12:50:43;;;;;;;27.88;5.47;;;7.40;99.90;;;;;;5010411;28;20083;-74
2022/01/17 12:53:10;;;;;;;28.67;4.20;;;7.40;99.90;;;;;;5009756;28;20037;-74
2022/01/17 12:55:51;;;;;;;32.60;5.00;;;7.40;99.90;;;;;;5010729;28;20156;-74
2022/01/17 12:58:24;;;;;;;27.73;4.90;;;7.40;99.90;;;;;;5008935;28;20507;-74
2022/01/17 13:00:51;;;;;;;24.15;4.43;;;7.40;99.90;;;;;;5006169;28;20296;-75
2022/01/17 13:03:19;;;;;;;27.08;5.05;;;7.30;99.90;;;;;;5011244;28;20105;-74
2022/01/17 13:05:45;;;;;;;24.27;4.95;;;7.30;99.90;;;;;;5010826;28;20029;-73
2022/01/17 13:08:11;;;;;;;23.50;4.25;;;7.20;99.90;;;;;;5009686;28;20045;-75
2022/01/17 13:10:37;;;;;;;33.58;6.13;;;7.20;99.90;;;;;;5010239;28;20022;-73
2022/01/17 13:13:04;;;;;;;29.65;4.45;;;7.10;99.90;;;;;;5010920;28;20052;-74
2022/01/17 13:15:30;;;;;;;22.17;4.43;;;7.10;99.90;;;;;;5014543;28;20666;-73
2022/01/17 13:17:56;;;;;;;20.83;4.20;;;7.10;99.90;;;;;;5009183;28;20041;-74
2022/01/17 13:20:25;;;;;;;28.50;4.53;;;7.10;99.90;;;;;;5009569;28;20315;-74